createdAt,value
2022-08-19T00:01:06.340Z,7.70
2022-08-19T00:04:43.358Z,7.10
2022-08-19T00:08:19.664Z,7.10
2022-08-19T00:11:58.786Z,8.40
2022-08-19T00:15:33.708Z,7.80
2022-08-19T00:19:10.629Z,7.60
2022-08-19T00:23:05.898Z,8.00
2022-08-19T00:26:47.784Z,7.10
2022-08-19T00:30:11.363Z,6.10
2022-08-19T00:33:51.517Z,6.40
2022-08-19T00:37:26.562Z,7.70
2022-08-19T00:40:59.914Z,8.40
2022-08-19T00:44:36.542Z,7.70
2022-08-19T00:48:34.271Z,6.80
2022-08-19T00:52:13.425Z,7.10
2022-08-19T00:55:58.586Z,7.80
2022-08-19T01:00:00.752Z,8.40
2022-08-19T01:03:23.381Z,8.10
2022-08-19T01:07:00.117Z,6.90
2022-08-19T01:10:44.536Z,6.90
2022-08-19T01:14:31.968Z,5.90
2022-08-19T01:17:56.737Z,8.10
2022-08-19T01:21:48.458Z,9.20
2022-08-19T01:25:15.098Z,7.40
2022-08-19T01:28:50.656Z,8.00
2022-08-19T01:32:33.812Z,7.20
2022-08-19T01:36:47.665Z,6.60
2022-08-19T01:40:13.749Z,7.00
2022-08-19T01:44:17.217Z,8.10
2022-08-19T01:47:41.381Z,7.60
2022-08-19T01:51:18.849Z,7.50
2022-08-19T01:54:54.833Z,7.60
2022-08-19T01:59:01.338Z,5.90
2022-08-19T02:02:44.310Z,6.90
2022-08-19T02:06:06.341Z,7.50
2022-08-19T02:09:43.431Z,7.50
2022-08-19T02:13:38.437Z,8.20
2022-08-19T02:17:00.288Z,7.00
2022-08-19T02:20:55.706Z,6.70
2022-08-19T02:24:36.962Z,6.60
2022-08-19T02:28:18.957Z,7.10
2022-08-19T02:31:59.883Z,7.60
2022-08-19T02:35:22.271Z,8.10
2022-08-19T02:38:58.555Z,6.70
2022-08-19T02:42:35.128Z,6.70
2022-08-19T02:46:21.985Z,6.70
2022-08-19T02:50:08.186Z,8.20
2022-08-19T02:53:30.868Z,7.30
2022-08-19T02:57:07.278Z,7.60
2022-08-19T03:00:54.262Z,6.80
2022-08-19T03:04:20.556Z,7.10
2022-08-19T03:07:56.977Z,6.90
2022-08-19T03:11:34.665Z,6.80
2022-08-19T03:15:30.605Z,6.80
2022-08-19T03:18:53.898Z,6.40
2022-08-19T03:22:48.175Z,7.90
2022-08-19T03:26:16.431Z,7.40
2022-08-19T03:29:46.719Z,8.10
2022-08-19T03:33:28.534Z,7.40
2022-08-19T03:37:09.002Z,6.90
2022-08-19T03:40:39.659Z,7.40
2022-08-19T03:44:17.060Z,7.30
2022-08-19T03:47:50.475Z,8.10
2022-08-19T03:51:31.930Z,8.90
2022-08-19T03:55:04.655Z,7.00
2022-08-19T03:58:41.422Z,6.10
2022-08-19T04:02:18.465Z,6.90
2022-08-19T04:05:54.829Z,7.90
2022-08-19T04:09:37.580Z,9.00
2022-08-19T04:13:10.063Z,7.20
2022-08-19T04:16:47.119Z,7.50
2022-08-19T04:20:21.748Z,7.30
2022-08-19T04:23:58.841Z,7.90
2022-08-19T04:27:35.394Z,8.50
2022-08-19T04:31:17.537Z,8.10
2022-08-19T04:35:01.436Z,6.60
2022-08-19T04:38:31.515Z,6.30
2022-08-19T04:42:30.742Z,7.90
2022-08-19T04:45:56.442Z,7.80
2022-08-19T04:49:31.083Z,7.90
2022-08-19T04:53:07.021Z,7.60
2022-08-19T04:56:44.453Z,6.30
2022-08-19T05:00:20.593Z,6.90
2022-08-19T05:03:59.519Z,8.40
2022-08-19T05:07:34.143Z,8.10
2022-08-19T05:11:15.465Z,7.70
2022-08-19T05:14:48.377Z,7.50
2022-08-19T05:18:44.129Z,7.20
2022-08-19T05:22:24.914Z,6.70
2022-08-19T05:25:46.822Z,7.70
2022-08-19T05:29:42.785Z,8.20
2022-08-19T05:33:04.543Z,8.20
2022-08-19T05:37:02.655Z,7.40
2022-08-19T05:40:24.021Z,6.90
2022-08-19T05:44:07.566Z,7.20
2022-08-19T05:47:42.139Z,7.40
2022-08-19T05:51:14.462Z,9.00
2022-08-19T05:54:52.104Z,7.70
2022-08-19T05:58:28.146Z,7.80
2022-08-19T06:02:07.505Z,6.50
2022-08-19T06:05:49.571Z,8.20
2022-08-19T06:09:37.738Z,7.10
2022-08-19T06:13:19.882Z,7.50
2022-08-19T06:16:42.959Z,7.30
2022-08-19T06:20:34.403Z,8.20
2022-08-19T06:24:01.534Z,7.90
2022-08-19T06:27:48.327Z,7.90
2022-08-19T06:31:18.867Z,8.10
2022-08-19T06:34:52.756Z,8.90
2022-08-19T06:38:29.365Z,8.00
2022-08-19T06:42:11.026Z,8.80
2022-08-19T06:45:43.441Z,8.00
2022-08-19T06:49:38.839Z,7.70
2022-08-19T06:53:04.454Z,7.00
2022-08-19T06:56:39.165Z,7.60
2022-08-19T07:00:15.141Z,7.70
2022-08-19T07:03:51.243Z,6.60
2022-08-19T07:07:28.073Z,7.10
2022-08-19T07:11:13.974Z,6.80
2022-08-19T07:14:42.113Z,6.80
2022-08-19T07:18:21.140Z,6.20
2022-08-19T07:21:56.109Z,6.30
2022-08-19T07:25:53.104Z,6.50
2022-08-19T07:29:16.492Z,5.70
2022-08-19T07:32:53.169Z,5.40
2022-08-19T07:36:32.655Z,6.60
2022-08-19T07:40:24.848Z,5.50
2022-08-19T07:43:47.075Z,5.70
2022-08-19T07:47:48.215Z,5.40
2022-08-19T07:51:09.166Z,5.60
2022-08-19T07:54:42.599Z,5.20
2022-08-19T07:58:41.998Z,4.80
2022-08-19T08:02:05.553Z,5.30
2022-08-19T08:05:59.436Z,5.30
2022-08-19T08:09:29.527Z,6.40
2022-08-19T08:13:09.576Z,4.80
2022-08-19T08:16:55.021Z,4.60
2022-08-19T08:20:35.584Z,4.70
2022-08-19T08:23:57.648Z,5.00
2022-08-19T08:27:57.029Z,4.70
2022-08-19T08:31:20.442Z,4.80
2022-08-19T08:34:55.782Z,4.70
2022-08-19T08:38:39.167Z,5.20
2022-08-19T08:42:35.358Z,4.80
2022-08-19T08:46:38.506Z,4.50
2022-08-19T08:50:12.218Z,5.20
2022-08-19T08:53:41.783Z,5.50
2022-08-19T08:57:24.847Z,6.20
2022-08-19T09:00:51.059Z,5.70
2022-08-19T09:04:28.480Z,6.00
2022-08-19T09:08:14.960Z,6.60
2022-08-19T09:11:57.506Z,5.00
2022-08-19T09:15:33.521Z,6.00
2022-08-19T09:19:06.480Z,5.60
2022-08-19T09:22:37.982Z,5.30
2022-08-19T09:26:22.951Z,5.30
2022-08-19T09:29:49.919Z,5.20
2022-08-19T09:33:26.314Z,4.90
2022-08-19T09:37:22.761Z,4.70
2022-08-19T09:40:46.503Z,4.70
2022-08-19T09:44:23.471Z,5.00
2022-08-19T09:48:23.556Z,4.70
2022-08-19T09:52:04.279Z,5.00
2022-08-19T09:55:45.380Z,4.90
2022-08-19T09:59:07.009Z,4.20
2022-08-19T10:02:44.760Z,4.30
2022-08-19T10:06:40.626Z,4.60
2022-08-19T10:10:10.405Z,5.20
2022-08-19T10:13:42.319Z,4.70
2022-08-19T10:17:37.620Z,4.50
2022-08-19T10:21:09.500Z,4.60
2022-08-19T10:24:36.500Z,4.50
2022-08-19T10:28:13.042Z,4.70
2022-08-19T10:32:01.314Z,5.40
2022-08-19T10:35:28.846Z,4.60
2022-08-19T10:39:08.584Z,3.60
2022-08-19T10:42:59.937Z,4.60
2022-08-19T10:46:26.579Z,3.70
2022-08-19T10:50:17.098Z,4.20
2022-08-19T10:53:39.452Z,3.90
2022-08-19T10:57:16.636Z,3.80
2022-08-19T11:00:58.617Z,4.10
2022-08-19T11:04:29.884Z,4.00
2022-08-19T11:11:48.696Z,4.10
2022-08-19T11:51:37.717Z,5.00
2022-08-19T11:58:58.550Z,4.10
2022-08-19T12:02:27.930Z,4.20
2022-08-19T12:06:14.945Z,4.60
2022-08-19T12:10:00.932Z,4.40
2022-08-19T12:13:23.497Z,4.90
2022-08-19T12:17:00.072Z,4.50
2022-08-19T12:20:39.079Z,5.00
2022-08-19T12:24:14.373Z,5.10
2022-08-19T12:27:57.361Z,4.80
2022-08-19T12:31:29.498Z,4.30
2022-08-19T12:35:05.185Z,4.60
2022-08-19T12:39:00.106Z,4.60
2022-08-19T12:42:23.711Z,5.30
2022-08-19T12:46:18.955Z,5.70
2022-08-19T12:49:52.488Z,5.10
2022-08-19T12:53:16.902Z,4.80
2022-08-19T12:57:12.682Z,4.70
2022-08-19T13:00:34.251Z,5.30
2022-08-19T13:04:30.285Z,4.60
2022-08-19T13:07:55.850Z,4.50
2022-08-19T13:11:33.389Z,4.00
2022-08-19T13:15:10.756Z,4.70
2022-08-19T13:36:54.547Z,4.80
2022-08-19T13:40:34.718Z,4.00
2022-08-19T13:44:07.672Z,4.40
2022-08-19T13:47:59.707Z,4.70
2022-08-19T13:51:43.952Z,5.40
2022-08-19T13:55:25.606Z,4.60
2022-08-19T13:59:06.897Z,4.80
2022-08-19T14:02:28.977Z,4.00
2022-08-19T14:06:05.338Z,4.30
2022-08-19T14:09:42.207Z,4.70
2022-08-19T14:13:37.790Z,3.80
2022-08-19T14:17:19.830Z,4.00
2022-08-19T14:20:42.715Z,3.80
2022-08-19T14:24:18.848Z,4.40
2022-08-19T14:27:57.166Z,3.90
2022-08-19T14:31:50.671Z,3.70
2022-08-19T14:35:15.836Z,4.30
2022-08-19T14:38:49.944Z,4.20
2022-08-19T14:42:28.758Z,4.30
2022-08-19T14:46:02.798Z,3.80
2022-08-19T14:49:44.798Z,4.10
2022-08-19T14:53:17.413Z,4.10
2022-08-19T14:57:15.043Z,4.00
2022-08-19T15:00:37.218Z,3.70
2022-08-19T15:04:13.787Z,4.40
2022-08-19T15:07:50.353Z,3.90
2022-08-19T15:11:28.736Z,3.80
2022-08-19T15:15:05.746Z,3.90
2022-08-19T15:18:45.043Z,4.10
2022-08-19T15:22:17.988Z,4.10
2022-08-19T15:25:55.967Z,3.90
2022-08-19T15:29:33.263Z,3.30
2022-08-19T15:33:08.440Z,3.60
2022-08-19T15:37:05.618Z,3.70
2022-08-19T15:40:28.198Z,6.30
2022-08-19T15:44:23.296Z,4.20
2022-08-19T15:47:45.266Z,4.20
2022-08-19T15:51:26.393Z,3.30
2022-08-19T15:54:58.727Z,3.20
2022-08-19T15:58:54.416Z,3.20
2022-08-19T16:02:37.970Z,4.00
2022-08-19T16:06:20.843Z,3.50
2022-08-19T16:09:42.872Z,3.90
2022-08-19T16:13:20.530Z,3.80
2022-08-19T16:17:16.178Z,4.10
2022-08-19T16:31:32.054Z,3.40
2022-08-19T16:35:09.419Z,3.80
2022-08-19T16:38:49.430Z,3.80
2022-08-19T16:42:22.811Z,3.70
2022-08-19T16:46:00.581Z,3.70
2022-08-19T16:49:53.526Z,3.70
2022-08-19T16:53:21.033Z,3.50
2022-08-19T16:57:13.565Z,3.80
2022-08-19T17:00:35.038Z,3.90
2022-08-19T17:04:13.572Z,3.90
2022-08-19T17:08:07.818Z,4.50
2022-08-19T17:11:33.055Z,4.00
2022-08-19T17:15:08.413Z,4.10
2022-08-19T17:19:05.564Z,4.00
2022-08-19T17:22:30.856Z,4.40
2022-08-19T17:26:05.485Z,4.50
2022-08-19T17:29:45.104Z,4.70
2022-08-19T17:33:36.481Z,4.90
2022-08-19T17:37:03.640Z,5.20
2022-08-19T17:41:04.388Z,5.40
2022-08-19T17:44:27.913Z,5.10
2022-08-19T17:48:05.960Z,5.30
2022-08-19T17:51:45.416Z,4.70
2022-08-19T17:55:20.207Z,5.50
2022-08-19T17:59:00.486Z,5.50
2022-08-19T18:02:32.186Z,5.50
2022-08-19T18:06:09.813Z,5.40
2022-08-19T18:09:53.157Z,5.40
2022-08-19T18:13:22.212Z,5.10
2022-08-19T18:17:01.802Z,6.00
2022-08-19T18:20:35.703Z,5.80
2022-08-19T18:24:13.233Z,6.50
2022-08-19T18:27:56.635Z,6.20
2022-08-19T18:31:30.082Z,5.50
2022-08-19T18:35:10.625Z,5.70
2022-08-19T18:39:06.352Z,5.40
2022-08-19T18:42:48.864Z,5.10
2022-08-19T18:46:29.582Z,4.80
2022-08-19T18:49:57.226Z,4.00
2022-08-19T18:53:36.190Z,4.00
2022-08-19T18:57:29.634Z,4.50
2022-08-19T19:00:52.750Z,3.60
2022-08-19T19:04:37.322Z,4.90
2022-08-19T19:08:04.897Z,4.40
2022-08-19T19:11:46.596Z,4.40
2022-08-19T19:15:19.034Z,4.40
2022-08-19T19:18:55.740Z,4.40
2022-08-19T19:22:32.277Z,4.30
2022-08-19T19:26:10.908Z,5.30
2022-08-19T19:30:05.361Z,5.40
2022-08-19T19:33:28.510Z,4.80
2022-08-19T19:37:03.899Z,4.40
2022-08-19T19:40:40.867Z,4.50
2022-08-19T19:44:30.537Z,4.90
2022-08-19T19:47:58.612Z,5.30
2022-08-19T19:51:37.718Z,4.90
2022-08-19T19:55:28.266Z,5.30
2022-08-19T19:58:53.469Z,4.90
2022-08-19T20:02:27.562Z,5.10
2022-08-19T20:06:03.665Z,5.40
2022-08-19T20:09:58.792Z,5.10
2022-08-19T20:13:22.333Z,5.30
2022-08-19T20:17:00.018Z,6.70
2022-08-19T20:20:36.062Z,5.80
2022-08-19T20:24:22.564Z,5.40
2022-08-19T20:27:49.770Z,4.40
2022-08-19T20:31:26.954Z,4.60
2022-08-19T20:35:06.317Z,6.00
2022-08-19T20:38:58.841Z,4.70
2022-08-19T20:42:21.542Z,4.50
2022-08-19T20:45:57.405Z,4.40
2022-08-19T20:49:53.085Z,4.30
2022-08-19T20:53:22.939Z,4.00
2022-08-19T20:57:10.201Z,3.90
2022-08-19T21:00:56.519Z,4.40
2022-08-19T21:04:21.585Z,4.40
2022-08-19T21:08:01.113Z,3.80
2022-08-19T21:11:32.258Z,4.10
2022-08-19T21:15:27.085Z,4.10
2022-08-19T21:18:48.854Z,4.80
2022-08-19T21:22:45.000Z,4.50
2022-08-19T21:26:25.437Z,5.90
2022-08-19T21:29:47.975Z,4.80
2022-08-19T21:33:43.012Z,4.50
2022-08-19T21:37:06.019Z,4.80
2022-08-19T21:40:41.531Z,4.90
2022-08-19T21:44:37.694Z,4.50
2022-08-19T21:48:00.019Z,4.50
2022-08-19T21:51:55.066Z,5.70
2022-08-19T21:55:38.706Z,5.30
2022-08-19T21:59:00.025Z,5.30
2022-08-19T22:02:57.934Z,4.90
2022-08-19T22:06:19.901Z,5.10
2022-08-19T22:10:15.470Z,5.10
2022-08-19T22:13:40.291Z,4.90
2022-08-19T22:17:14.779Z,5.50
2022-08-19T22:20:50.608Z,5.80
2022-08-19T22:24:27.695Z,5.70
2022-08-19T22:28:06.849Z,6.70
2022-08-19T22:31:41.090Z,4.50
2022-08-19T22:35:29.656Z,2.60
2022-08-19T22:39:13.506Z,3.00
2022-08-19T22:42:35.572Z,4.70
2022-08-19T22:46:33.020Z,3.90
2022-08-19T22:49:55.176Z,4.30
2022-08-19T22:53:33.736Z,2.60
2022-08-19T22:57:08.289Z,3.90
2022-08-19T23:00:45.230Z,4.00
2022-08-19T23:04:23.153Z,3.80
2022-08-19T23:07:58.982Z,2.80
2022-08-19T23:11:41.656Z,3.50
2022-08-19T23:15:15.896Z,2.80
2022-08-19T23:18:49.333Z,3.70
2022-08-19T23:22:26.084Z,3.20
2022-08-19T23:26:22.260Z,3.60
2022-08-19T23:30:02.724Z,3.50
2022-08-19T23:33:51.105Z,3.20
2022-08-19T23:37:15.654Z,2.60
2022-08-19T23:40:53.204Z,2.70
2022-08-19T23:44:28.840Z,3.20
2022-08-19T23:48:05.921Z,2.60
2022-08-19T23:51:42.344Z,2.70
2022-08-19T23:55:20.935Z,3.50
2022-08-19T23:58:55.164Z,3.50
